Time;durP1;ratioP1;P1;durP2;ratioP2;P2;SDS_P1;SDS_P2;PMS_P1;PMS_P2;Temp;Humidity;BMP_temperature;BMP_pressure;BME280_temperature;BME280_humidity;BME280_pressure;Samples;Min_cycle;Max_cycle;Signal;HPM_P1;HPM_P2
2023/09/29 00:01:37;;;;;;;11.27;10.37;;;;;;;10.99;100.00;97336.81;5070060;28;20218;-60
2023/09/29 00:04:05;;;;;;;11.40;10.50;;;;;;;10.96;100.00;97333.69;5078400;28;20243;-60
2023/09/29 00:06:35;;;;;;;11.47;10.57;;;;;;;10.97;100.00;97330.88;5072036;28;20213;-61
2023/09/29 00:09:06;;;;;;;12.27;11.17;;;;;;;10.86;100.00;97321.53;5076700;28;20217;-58
2023/09/29 00:11:34;;;;;;;11.67;10.73;;;;;;;10.86;100.00;97328.69;5069175;28;20209;-59
2023/09/29 00:14:02;;;;;;;10.97;10.07;;;;;;;10.80;100.00;97326.78;5072802;28;20210;-64
2023/09/29 00:16:31;;;;;;;9.97;9.17;;;;;;;10.81;100.00;97328.41;4998709;28;20966;-62
2023/09/29 00:18:59;;;;;;;10.80;9.90;;;;;;;10.77;100.00;97321.81;5051728;28;20222;-58
2023/09/29 00:21:27;;;;;;;11.50;10.47;;;;;;;10.76;100.00;97326.28;5072966;28;20985;-60
2023/09/29 00:23:56;;;;;;;11.07;10.20;;;;;;;10.69;100.00;97328.03;5071687;28;20725;-61
2023/09/29 00:26:24;;;;;;;11.57;10.67;;;;;;;10.66;100.00;97326.56;5067613;28;20278;-62
2023/09/29 00:28:51;;;;;;;10.70;9.80;;;;;;;10.73;100.00;97331.13;5071431;28;20221;-59
2023/09/29 00:31:19;;;;;;;12.43;11.53;;;;;;;10.65;100.00;97324.09;5075272;28;20228;-61
2023/09/29 00:33:47;;;;;;;11.67;10.57;;;;;;;10.69;100.00;97322.72;5077228;28;20202;-60
2023/09/29 00:36:14;;;;;;;11.57;10.67;;;;;;;10.66;100.00;97323.09;5074591;28;20297;-62
2023/09/29 00:38:42;;;;;;;11.97;11.00;;;;;;;10.65;100.00;97322.25;5073223;28;20317;-60
2023/09/29 00:41:12;;;;;;;11.43;10.43;;;;;;;10.64;100.00;97330.41;5074481;28;20194;-59
2023/09/29 00:43:40;;;;;;;11.57;10.47;;;;;;;10.66;100.00;97333.69;5072917;28;20243;-59
2023/09/29 00:46:08;;;;;;;12.07;11.03;;;;;;;10.63;100.00;97331.41;5073237;28;20225;-60
2023/09/29 00:48:38;;;;;;;12.07;11.10;;;;;;;10.55;100.00;97327.81;5072940;28;20333;-59
2023/09/29 00:51:09;;;;;;;12.43;11.47;;;;;;;10.59;100.00;97330.09;5043412;28;20253;-59
2023/09/29 00:53:38;;;;;;;11.73;10.83;;;;;;;10.49;100.00;97325.06;5006596;28;20203;-59
2023/09/29 00:56:06;;;;;;;12.13;11.13;;;;;;;10.52;100.00;97324.72;5072935;28;20267;-61
2023/09/29 00:58:35;;;;;;;12.60;11.30;;;;;;;10.49;100.00;97314.47;5078738;28;20333;-61
2023/09/29 01:01:06;;;;;;;12.03;11.03;;;;;;;10.48;100.00;97324.25;5075053;28;20295;-61
2023/09/29 01:03:33;;;;;;;13.53;12.40;;;;;;;10.46;100.00;97322.78;5078181;28;20301;-59
2023/09/29 01:06:01;;;;;;;12.50;11.47;;;;;;;10.36;100.00;97315.88;5073863;28;20198;-61
2023/09/29 01:08:29;;;;;;;13.13;11.93;;;;;;;10.35;100.00;97313.41;5072099;28;20222;-60
2023/09/29 01:10:57;;;;;;;12.03;11.10;;;;;;;10.39;100.00;97320.00;5079683;28;20659;-60
2023/09/29 01:13:25;;;;;;;13.37;12.17;;;;;;;10.37;100.00;97314.88;5075644;28;20241;-58
2023/09/29 01:15:54;;;;;;;12.97;11.77;;;;;;;10.42;100.00;97317.84;5073678;28;20214;-60
2023/09/29 01:18:22;;;;;;;13.30;12.17;;;;;;;10.49;100.00;97317.13;5070634;28;20227;-60
2023/09/29 01:20:50;;;;;;;13.00;11.90;;;;;;;10.46;100.00;97312.19;5077388;28;20206;-59
2023/09/29 01:23:20;;;;;;;12.87;11.60;;;;;;;10.43;100.00;97310.72;4965889;28;20624;-60
2023/09/29 01:25:49;;;;;;;12.83;11.83;;;;;;;10.34;100.00;97307.28;5075644;28;20203;-60
2023/09/29 01:28:16;;;;;;;12.23;11.13;;;;;;;10.32;100.00;97301.34;5069780;28;20737;-60
2023/09/29 01:30:45;;;;;;;12.50;11.40;;;;;;;10.25;100.00;97308.34;5080167;28;20215;-60
2023/09/29 01:33:13;;;;;;;12.67;11.67;;;;;;;10.23;100.00;97313.00;5073702;28;20240;-59
2023/09/29 01:35:43;;;;;;;11.60;10.67;;;;;;;10.23;100.00;97313.84;5073927;28;20619;-58
2023/09/29 01:38:11;;;;;;;12.03;11.03;;;;;;;10.23;100.00;97315.66;5007829;28;20283;-59
2023/09/29 01:40:40;;;;;;;11.90;10.97;;;;;;;10.26;100.00;97312.66;5079732;28;20202;-60
2023/09/29 01:43:09;;;;;;;13.40;12.20;;;;;;;10.30;100.00;97310.47;5073774;28;20277;-60
2023/09/29 01:45:38;;;;;;;17.50;14.63;;;;;;;10.31;100.00;97320.06;5075013;28;21223;-59
2023/09/29 01:48:07;;;;;;;14.40;13.10;;;;;;;10.36;100.00;97315.88;5071741;28;20724;-61
2023/09/29 01:50:34;;;;;;;14.50;13.00;;;;;;;10.39;100.00;97318.16;5075343;28;20632;-62
2023/09/29 01:53:03;;;;;;;17.03;14.37;;;;;;;10.39;100.00;97328.75;4965061;28;20233;-61
2023/09/29 01:55:30;;;;;;;17.80;14.73;;;;;;;10.36;100.00;97329.09;5077190;28;20198;-63
2023/09/29 01:57:58;;;;;;;16.57;15.07;;;;;;;10.35;100.00;97324.00;5085024;28;20360;-62
2023/09/29 02:00:29;;;;;;;15.57;13.97;;;;;;;10.37;100.00;97324.66;5090151;28;20206;-60
2023/09/29 02:02:58;;;;;;;16.00;14.50;;;;;;;10.39;100.00;97326.09;5077315;28;20266;-62
2023/09/29 02:05:26;;;;;;;16.87;15.07;;;;;;;10.39;100.00;97326.09;5071941;28;20204;-57
2023/09/29 02:07:59;;;;;;;16.20;14.67;;;;;;;10.36;100.00;97323.00;5068330;28;20217;-62
2023/09/29 02:10:27;;;;;;;16.47;14.77;;;;;;;10.36;100.00;97330.94;5077026;28;20279;-59
2023/09/29 02:12:56;;;;;;;16.70;15.03;;;;;;;10.32;100.00;97327.00;5071265;28;20222;-56
2023/09/29 02:15:25;;;;;;;15.63;14.03;;;;;;;10.30;100.00;97329.81;5075488;28;20234;-62
2023/09/29 02:17:54;;;;;;;15.40;13.93;;;;;;;10.30;100.00;97329.03;5067773;28;20581;-59
2023/09/29 02:20:37;;;;;;;15.17;13.57;;;;;;;10.32;100.00;97327.00;5077988;28;20590;-62
2023/09/29 02:23:07;;;;;;;16.53;14.97;;;;;;;10.31;100.00;97336.78;4959201;28;20220;-57
2023/09/29 02:25:34;;;;;;;15.57;13.93;;;;;;;10.25;100.00;97334.84;5075660;28;20282;-59
2023/09/29 02:28:02;;;;;;;14.83;13.53;;;;;;;10.22;100.00;97332.56;5071434;28;20327;-59
2023/09/29 02:30:30;;;;;;;15.27;13.70;;;;;;;10.19;100.00;97338.19;5074896;28;20225;-59
2023/09/29 02:32:59;;;;;;;16.03;14.43;;;;;;;10.16;100.00;97336.72;5065646;28;20226;-60
2023/09/29 02:35:28;;;;;;;14.93;13.53;;;;;;;10.12;100.00;97332.78;5078863;28;20740;-62
2023/09/29 02:37:55;;;;;;;15.30;13.73;;;;;;;10.08;100.00;97337.63;5073403;28;20884;-61
2023/09/29 02:40:23;;;;;;;14.00;12.80;;;;;;;10.01;100.00;97335.84;5074447;28;20608;-61
2023/09/29 02:42:51;;;;;;;15.30;13.73;;;;;;;9.97;100.00;97335.38;5069575;28;20718;-58
2023/09/29 02:45:19;;;;;;;14.70;13.30;;;;;;;9.89;100.00;97338.91;5073413;28;20225;-58
2023/09/29 02:47:47;;;;;;;15.13;13.73;;;;;;;9.87;100.00;97324.22;5072984;28;20389;-57
2023/09/29 02:50:18;;;;;;;15.03;13.63;;;;;;;9.87;100.00;97325.03;5078453;28;20241;-59
2023/09/29 02:52:46;;;;;;;14.23;12.90;;;;;;;9.75;100.00;97318.50;4964978;28;20675;-60
2023/09/29 02:55:15;;;;;;;14.13;12.60;;;;;;;9.73;100.00;97326.63;5076326;28;20707;-60
2023/09/29 02:57:44;;;;;;;13.30;12.00;;;;;;;9.72;100.00;97317.03;5073942;28;20238;-61
2023/09/29 03:00:16;;;;;;;13.43;12.33;;;;;;;9.69;100.00;97315.53;5075585;28;20198;-61
2023/09/29 03:02:44;;;;;;;13.43;12.03;;;;;;;9.66;100.00;97312.41;5032521;28;20872;-59
2023/09/29 03:05:14;;;;;;;11.70;10.60;;;;;;;9.54;100.00;97310.19;5078950;28;20205;-60
2023/09/29 03:07:44;;;;;;;9.43;8.70;;;;;;;9.50;100.00;97308.06;5068082;28;20361;-57
2023/09/29 03:10:13;;;;;;;8.73;8.03;;;;;;;9.42;100.00;97311.56;5068656;28;20210;-61
2023/09/29 03:12:41;;;;;;;9.40;8.70;;;;;;;9.50;100.00;97319.47;5070566;28;21010;-60
2023/09/29 03:15:11;;;;;;;10.73;9.83;;;;;;;9.42;100.00;97308.94;5073074;28;20234;-62
2023/09/29 03:17:39;;;;;;;11.13;10.17;;;;;;;9.46;100.00;97312.03;5071215;28;20834;-61
2023/09/29 03:20:10;;;;;;;12.43;11.43;;;;;;;9.45;100.00;97316.50;4984641;28;20585;-60
2023/09/29 03:22:39;;;;;;;13.00;11.80;;;;;;;9.41;100.00;97315.22;5072898;28;20195;-60
2023/09/29 03:25:10;;;;;;;12.43;11.43;;;;;;;9.44;100.00;97322.81;5013339;28;20269;-61
2023/09/29 03:27:38;;;;;;;12.73;11.63;;;;;;;9.43;100.00;97325.59;5075776;28;20218;-59
2023/09/29 03:30:08;;;;;;;12.90;11.77;;;;;;;9.45;100.00;97327.09;5070068;28;20202;-62
2023/09/29 03:32:36;;;;;;;12.13;11.13;;;;;;;9.52;100.00;97328.03;5072336;28;20214;-63
2023/09/29 03:35:05;;;;;;;13.23;12.17;;;;;;;9.53;100.00;97327.03;5078780;28;20282;-63
2023/09/29 03:37:36;;;;;;;12.40;11.40;;;;;;;9.54;100.00;97333.97;5018986;28;20230;-59
2023/09/29 03:40:08;;;;;;;11.17;10.17;;;;;;;9.51;100.00;97341.47;5002371;28;20647;-61
2023/09/29 03:42:41;;;;;;;11.33;10.43;;;;;;;9.43;100.00;97342.31;5077322;28;20218;-59
2023/09/29 03:45:11;;;;;;;12.57;11.50;;;;;;;9.48;100.00;97347.91;5074783;28;20297;-59
2023/09/29 03:47:39;;;;;;;12.37;11.37;;;;;;;9.48;100.00;97347.91;5076552;28;20240;-63
2023/09/29 03:50:08;;;;;;;12.20;11.20;;;;;;;9.50;100.00;97350.38;4963969;28;20718;-62
2023/09/29 03:52:37;;;;;;;11.47;10.47;;;;;;;9.52;100.00;97343.91;5072342;28;20652;-61
2023/09/29 03:55:06;;;;;;;18.30;12.37;;;;;;;9.60;100.00;97350.16;5069051;28;20299;-59
2023/09/29 03:57:34;;;;;;;12.67;11.53;;;;;;;9.65;100.00;97355.75;5074010;28;20318;-61
2023/09/29 04:00:06;;;;;;;13.07;11.80;;;;;;;9.66;100.00;97349.44;5077805;28;20198;-60
2023/09/29 04:02:34;;;;;;;11.70;10.80;;;;;;;9.71;100.00;97352.44;5068029;28;20682;-60
2023/09/29 04:05:02;;;;;;;12.37;11.37;;;;;;;9.70;100.00;97356.88;5007563;28;20355;-60
2023/09/29 04:07:30;;;;;;;10.93;10.03;;;;;;;9.68;100.00;97358.06;5073158;28;20401;-59
2023/09/29 04:09:57;;;;;;;9.90;9.17;;;;;;;9.68;100.00;97358.88;5014678;28;21848;-60
2023/09/29 04:12:25;;;;;;;11.43;10.43;;;;;;;9.61;100.00;97362.38;5071188;28;20293;-61
2023/09/29 04:14:53;;;;;;;10.97;10.17;;;;;;;9.63;100.00;97365.69;5075870;28;20224;-59
2023/09/29 04:17:22;;;;;;;10.47;9.67;;;;;;;9.60;100.00;97363.38;5068145;28;20308;-62
2023/09/29 04:19:49;;;;;;;9.90;9.20;;;;;;;9.59;100.00;97357.28;5072564;28;20528;-64
2023/09/29 04:22:17;;;;;;;11.17;10.07;;;;;;;9.59;100.00;97359.09;5068748;28;20267;-61
2023/09/29 04:24:46;;;;;;;9.77;9.07;;;;;;;9.40;100.00;97343.47;4997080;28;20643;-62
2023/09/29 04:27:14;;;;;;;9.37;8.60;;;;;;;9.43;100.00;97358.19;5061873;28;20218;-59
2023/09/29 04:29:41;;;;;;;10.03;9.13;;;;;;;9.27;100.00;97364.34;5081264;28;20466;-60
2023/09/29 04:32:09;;;;;;;9.33;8.60;;;;;;;9.31;100.00;97370.94;5025889;28;20503;-63
2023/09/29 04:34:39;;;;;;;9.27;8.57;;;;;;;9.30;100.00;97363.22;5070079;28;20257;-61
2023/09/29 04:37:06;;;;;;;9.03;8.43;;;;;;;9.21;100.00;97365.06;5077354;28;20287;-62
2023/09/29 04:39:34;;;;;;;9.97;9.33;;;;;;;9.14;100.00;97356.97;5077766;28;20201;-56
2023/09/29 04:42:04;;;;;;;9.10;8.43;;;;;;;9.11;100.00;97362.59;5044888;28;20355;-62
2023/09/29 04:44:32;;;;;;;9.23;8.63;;;;;;;8.95;100.00;97348.44;5058579;28;20306;-60
2023/09/29 04:47:00;;;;;;;9.30;8.53;;;;;;;8.98;100.00;97363.13;5076182;28;20217;-60
2023/09/29 04:49:27;;;;;;;9.60;8.90;;;;;;;8.93;100.00;97358.38;5072248;28;20298;-59
2023/09/29 04:51:56;;;;;;;10.20;9.40;;;;;;;8.93;100.00;97357.53;5078643;28;20199;-61
2023/09/29 04:54:24;;;;;;;9.33;8.60;;;;;;;8.92;100.00;97355.88;5075100;28;20815;-59
2023/09/29 04:56:52;;;;;;;11.40;10.43;;;;;;;8.93;100.00;97354.88;5043820;28;20220;-62
2023/09/29 04:59:21;;;;;;;10.80;10.00;;;;;;;8.93;100.00;97357.53;5016887;28;20230;-59
2023/09/29 05:01:49;;;;;;;9.83;9.03;;;;;;;8.91;100.00;97352.44;5075643;28;20202;-59
2023/09/29 05:04:16;;;;;;;11.27;10.37;;;;;;;8.93;100.00;97354.88;5071058;28;20210;-57
2023/09/29 05:06:44;;;;;;;10.60;9.70;;;;;;;8.87;100.00;97351.09;5081252;28;20210;-62
2023/09/29 05:09:15;;;;;;;10.97;10.07;;;;;;;8.88;100.00;97354.56;5078891;28;20698;-61
2023/09/29 05:11:43;;;;;;;10.20;9.20;;;;;;;8.83;100.00;97334.75;5073096;28;20213;-61
2023/09/29 05:14:11;;;;;;;10.90;9.90;;;;;;;8.90;100.00;97356.06;5030578;28;20217;-60
2023/09/29 05:16:38;;;;;;;11.80;10.70;;;;;;;8.91;100.00;97351.59;5074282;28;20289;-61
2023/09/29 05:19:06;;;;;;;11.13;10.13;;;;;;;8.94;100.00;97346.78;5076972;28;20242;-62
2023/09/29 05:21:36;;;;;;;11.70;10.67;;;;;;;8.96;100.00;97350.09;5073401;28;20899;-62
2023/09/29 05:24:04;;;;;;;10.60;9.77;;;;;;;8.97;100.00;97349.09;5075418;28;20198;-62
2023/09/29 05:26:33;;;;;;;11.30;10.30;;;;;;;8.87;100.00;97345.00;5071430;28;20233;-61
2023/09/29 05:29:01;;;;;;;11.30;10.30;;;;;;;8.90;100.00;97358.69;5065001;28;20298;-62
2023/09/29 05:31:29;;;;;;;11.83;10.83;;;;;;;8.97;100.00;97361.47;4984619;28;20206;-60
2023/09/29 05:33:57;;;;;;;11.50;10.50;;;;;;;8.99;100.00;97370.06;5074171;28;21096;-60
2023/09/29 05:36:25;;;;;;;11.33;10.27;;;;;;;9.05;100.00;97379.94;5075907;28;20673;-60
2023/09/29 05:38:52;;;;;;;11.80;10.33;;;;;;;9.06;100.00;97378.94;5076522;28;20308;-59
2023/09/29 05:41:20;;;;;;;12.20;11.20;;;;;;;9.10;100.00;97387.38;5071257;28;20210;-60
2023/09/29 05:43:49;;;;;;;12.63;11.57;;;;;;;9.15;100.00;97395.63;5072495;28;20368;-62
2023/09/29 05:46:17;;;;;;;14.03;12.83;;;;;;;9.17;100.00;97393.63;5017065;28;20215;-59
2023/09/29 05:48:45;;;;;;;12.07;11.07;;;;;;;9.19;100.00;97391.63;5073798;28;20268;-61
2023/09/29 05:51:12;;;;;;;12.93;11.73;;;;;;;9.25;100.00;97395.44;5073904;28;20198;-60
2023/09/29 05:53:40;;;;;;;14.93;13.53;;;;;;;9.34;100.00;97401.53;5075180;28;20248;-59
2023/09/29 05:56:08;;;;;;;14.40;13.20;;;;;;;9.36;100.00;97403.00;5074596;28;20202;-59
2023/09/29 05:58:37;;;;;;;14.80;13.43;;;;;;;9.50;100.00;97396.16;5072042;28;20350;-62
2023/09/29 06:01:10;;;;;;;15.27;11.97;;;;;;;9.60;100.00;97403.91;4970461;28;20218;-58
2023/09/29 06:03:38;;;;;;;14.13;11.33;;;;;;;9.72;100.00;97399.06;5075633;28;20302;-58
2023/09/29 06:06:06;;;;;;;13.60;12.23;;;;;;;9.81;100.00;97400.66;5076814;28;20201;-63
2023/09/29 06:08:34;;;;;;;13.93;12.63;;;;;;;9.91;100.00;97395.16;5077319;28;20222;-59
2023/09/29 06:11:21;;;;;;;15.53;12.47;;;;;;;10.06;100.00;97387.28;4985171;28;20271;-60
2023/09/29 06:13:49;;;;;;;13.00;11.77;;;;;;;10.16;100.00;97389.69;5077017;28;20227;-62
2023/09/29 06:16:18;;;;;;;14.73;13.33;;;;;;;10.24;100.00;97388.81;5019270;28;20210;-61
2023/09/29 06:18:47;;;;;;;14.80;13.40;;;;;;;10.33;100.00;97402.81;5074576;28;20800;-62
2023/09/29 06:21:16;;;;;;;15.00;13.57;;;;;;;10.49;100.00;97386.00;5074860;28;20203;-61
2023/09/29 06:23:44;;;;;;;17.13;15.43;;;;;;;10.40;100.00;97385.25;5076010;28;20207;-58
2023/09/29 06:26:13;;;;;;;15.67;13.83;;;;;;;10.39;100.00;97386.22;5012882;28;20351;-62
2023/09/29 06:28:41;;;;;;;16.27;14.40;;;;;;;10.59;100.00;97391.03;5077503;28;20219;-60
2023/09/29 06:31:09;;;;;;;18.03;16.23;;;;;;;10.68;100.00;97392.63;5074077;28;20255;-59
2023/09/29 06:33:39;;;;;;;16.90;15.37;;;;;;;10.79;100.00;97396.66;5075226;28;21295;-60
2023/09/29 06:36:07;;;;;;;15.37;13.97;;;;;;;10.91;100.00;97403.19;4971506;28;20232;-62
2023/09/29 06:38:34;;;;;;;12.70;11.67;;;;;;;10.99;100.00;97399.63;5073167;28;20275;-61
2023/09/29 06:41:02;;;;;;;14.70;13.30;;;;;;;11.16;100.00;97397.59;5071488;28;20251;-62
2023/09/29 06:43:30;;;;;;;13.10;12.00;;;;;;;11.28;100.00;97403.28;5073588;28;20294;-62
2023/09/29 06:45:58;;;;;;;12.87;11.77;;;;;;;11.39;100.00;97408.16;5075657;28;20277;-63
2023/09/29 06:48:29;;;;;;;13.43;12.17;;;;;;;11.38;100.00;97400.38;5076031;28;20242;-62
2023/09/29 06:50:59;;;;;;;13.43;12.30;;;;;;;11.66;100.00;97392.56;5018353;28;20712;-60
2023/09/29 06:53:29;;;;;;;11.13;10.33;;;;;;;11.51;100.00;97397.88;5075670;28;20224;-59
2023/09/29 06:55:57;;;;;;;10.30;9.57;;;;;;;11.34;100.00;97393.78;5079285;28;20226;-59
2023/09/29 06:58:25;;;;;;;10.87;10.07;;;;;;;11.17;100.00;97388.66;5083162;28;20221;-58
2023/09/29 07:00:53;;;;;;;10.37;9.60;;;;;;;10.87;100.00;97391.28;5014331;28;20207;-58
2023/09/29 07:03:21;;;;;;;11.17;10.30;;;;;;;10.98;100.00;97393.50;5078896;28;20202;-59
2023/09/29 07:05:49;;;;;;;10.03;9.33;;;;;;;11.07;100.00;97398.72;5077228;28;20203;-60
2023/09/29 07:08:18;;;;;;;10.60;9.80;;;;;;;11.37;100.00;97404.03;5074848;28;20276;-60
2023/09/29 07:10:46;;;;;;;11.83;10.63;;;;;;;11.18;100.00;97400.94;4974938;28;20210;-57
2023/09/29 07:13:14;;;;;;;11.73;10.63;;;;;;;11.51;100.00;97411.16;5074383;28;20229;-59
2023/09/29 07:15:42;;;;;;;13.67;11.70;;;;;;;11.87;100.00;97410.34;5006199;28;20309;-61
2023/09/29 07:18:12;;;;;;;12.30;11.40;;;;;;;11.93;100.00;97405.31;5075309;28;20711;-64
2023/09/29 07:20:40;;;;;;;12.97;11.67;;;;;;;11.78;100.00;97403.53;5015746;28;20202;-59
2023/09/29 07:23:09;;;;;;;12.57;11.57;;;;;;;12.13;100.00;97408.25;5072929;28;20772;-60
2023/09/29 07:25:39;;;;;;;12.00;11.10;;;;;;;12.18;100.00;97424.44;5067539;28;20229;-62
2023/09/29 07:28:08;;;;;;;13.87;11.77;;;;;;;12.52;100.00;97416.78;5079109;28;20279;-59
2023/09/29 07:30:36;;;;;;;13.27;12.07;;;;;;;12.57;100.00;97414.34;5072264;28;20873;-62
2023/09/29 07:33:05;;;;;;;11.70;10.80;;;;;;;12.40;100.00;97409.31;5075040;28;20872;-61
2023/09/29 07:35:33;;;;;;;11.40;10.50;;;;;;;12.68;100.00;97410.38;5072524;28;20218;-61
2023/09/29 07:38:02;;;;;;;12.70;11.57;;;;;;;12.72;100.00;97411.63;5075651;28;20228;-61
2023/09/29 07:40:30;;;;;;;14.97;13.47;;;;;;;12.96;100.00;97402.41;5008854;28;20661;-61
2023/09/29 07:42:59;;;;;;;12.83;11.80;;;;;;;12.79;100.00;97407.19;5082691;28;20775;-61
2023/09/29 07:45:27;;;;;;;13.23;12.23;;;;;;;13.14;100.00;97411.75;4974612;28;20274;-60
2023/09/29 07:47:55;;;;;;;13.13;12.03;;;;;;;13.26;100.00;97407.50;5076770;28;20233;-61
2023/09/29 07:50:23;;;;;;;13.63;12.43;;;;;;;13.35;100.00;97405.53;5017642;28;20232;-57
2023/09/29 07:52:50;;;;;;;12.57;11.57;;;;;;;13.34;100.00;97408.38;5072908;28;20194;-62
2023/09/29 07:55:18;;;;;;;11.77;10.80;;;;;;;13.64;100.00;97408.97;5074852;28;20267;-60
2023/09/29 07:57:46;;;;;;;13.07;12.07;;;;;;;13.74;100.00;97411.25;5075055;28;20291;-59
2023/09/29 08:00:16;;;;;;;13.57;12.47;;;;;;;13.56;100.00;97407.28;5070321;28;20244;-60
2023/09/29 08:02:45;;;;;;;14.97;12.67;;;;;;;13.66;100.00;97412.25;5073681;28;20210;-63
2023/09/29 08:05:13;;;;;;;12.13;11.13;;;;;;;13.47;100.00;97413.81;5071511;28;20212;-61
2023/09/29 08:07:41;;;;;;;12.87;11.87;;;;;;;13.43;100.00;97412.53;5072459;28;20218;-60
2023/09/29 08:10:10;;;;;;;14.27;12.97;;;;;;;13.65;100.00;97412.44;5070799;28;20197;-61
2023/09/29 08:12:38;;;;;;;13.90;12.83;;;;;;;13.63;100.00;97406.50;5076185;28;20194;-59
2023/09/29 08:15:08;;;;;;;13.90;12.40;;;;;;;13.57;100.00;97410.75;5076706;28;20301;-61
2023/09/29 08:17:37;;;;;;;14.63;13.43;;;;;;;13.88;100.00;97415.63;5072879;28;20222;-61
2023/09/29 08:20:06;;;;;;;12.90;11.80;;;;;;;14.27;100.00;97420.44;4966805;28;20213;-59
2023/09/29 08:22:33;;;;;;;14.40;13.00;;;;;;;14.98;100.00;97431.59;5073061;28;20299;-59
2023/09/29 08:25:08;;;;;;;13.73;12.43;;;;;;;15.04;100.00;97430.78;5015117;28;20716;-58
2023/09/29 08:27:36;;;;;;;13.50;12.40;;;;;;;15.00;100.00;97435.72;5070120;28;20721;-62
2023/09/29 08:30:05;;;;;;;13.27;12.20;;;;;;;14.94;100.00;97430.38;5069427;28;20202;-60
2023/09/29 08:32:33;;;;;;;13.63;12.43;;;;;;;15.06;100.00;97442.06;5073482;28;20841;-62
2023/09/29 08:35:02;;;;;;;13.63;12.53;;;;;;;14.66;100.00;97442.03;5070533;28;20711;-60
2023/09/29 08:37:30;;;;;;;12.57;11.57;;;;;;;15.05;100.00;97449.25;5074585;28;20333;-60
2023/09/29 08:39:57;;;;;;;13.37;12.33;;;;;;;14.69;100.00;97447.78;5069012;28;20681;-58
2023/09/29 08:42:37;;;;;;;13.77;12.70;;;;;;;14.74;100.00;97455.19;5047612;28;20288;-62
2023/09/29 08:45:08;;;;;;;15.00;13.60;;;;;;;14.89;100.00;97457.66;5059231;28;20194;-61
2023/09/29 08:47:37;;;;;;;14.50;13.40;;;;;;;15.23;100.00;97455.00;5068590;28;20232;-61
2023/09/29 08:50:08;;;;;;;15.77;14.37;;;;;;;14.94;100.00;97457.84;5074637;28;20202;-60
2023/09/29 08:52:37;;;;;;;17.77;16.27;;;;;;;15.22;100.00;97450.69;5011777;28;20849;-62
2023/09/29 08:55:07;;;;;;;15.97;14.60;;;;;;;15.70;100.00;97449.53;5039132;28;20298;-61
2023/09/29 08:57:34;;;;;;;18.53;17.00;;;;;;;15.53;100.00;97447.31;5039550;28;20802;-62
2023/09/29 09:00:04;;;;;;;17.30;15.70;;;;;;;15.45;100.00;97451.03;5050735;28;20302;-61
2023/09/29 09:02:32;;;;;;;18.03;16.50;;;;;;;15.48;100.00;97447.13;5065515;28;20302;-63
2023/09/29 09:04:59;;;;;;;17.90;16.50;;;;;;;15.73;100.00;97439.25;5071623;28;20660;-59
2023/09/29 09:07:29;;;;;;;18.20;16.50;;;;;;;15.90;100.00;97436.97;5075523;28;20234;-63
2023/09/29 09:09:58;;;;;;;18.33;16.87;;;;;;;15.67;100.00;97437.44;5071900;28;20225;-58
2023/09/29 09:12:32;;;;;;;19.57;17.97;;;;;;;15.42;100.00;97434.63;5070117;28;21010;-58
2023/09/29 09:15:00;;;;;;;18.83;17.30;;;;;;;15.66;100.00;97433.13;5073124;28;20277;-58
2023/09/29 09:17:28;;;;;;;18.33;16.63;;;;;;;15.84;100.00;97440.47;5074839;28;20848;-60
2023/09/29 09:19:56;;;;;;;18.60;17.20;;;;;;;16.31;100.00;97434.09;5075315;28;20202;-58
2023/09/29 09:22:27;;;;;;;19.53;17.93;;;;;;;16.59;100.00;97427.53;5043869;28;20202;-62
2023/09/29 09:25:14;;;;;;;18.07;16.67;;;;;;;18.05;100.00;97412.94;5056382;28;20229;-58
2023/09/29 09:27:44;;;;;;;19.20;17.53;;;;;;;18.14;100.00;97426.84;5031500;28;20295;-61
2023/09/29 09:30:20;;;;;;;19.17;17.43;;;;;;;18.13;100.00;97417.19;5075254;28;20202;-60
2023/09/29 09:32:48;;;;;;;17.53;16.00;;;;;;;17.96;100.00;97421.47;5085574;28;20194;-61
2023/09/29 09:35:24;;;;;;;22.53;18.23;;;;;;;17.73;100.00;97399.69;5082631;28;20874;-61
2023/09/29 09:37:52;;;;;;;18.33;16.73;;;;;;;17.33;100.00;97387.59;5074646;28;20230;-61
2023/09/29 09:40:23;;;;;;;17.87;16.37;;;;;;;17.57;100.00;97390.41;5079808;28;20277;-61
2023/09/29 09:42:53;;;;;;;20.30;18.43;;;;;;;17.48;100.00;97378.38;5072936;28;20199;-61
2023/09/29 09:45:25;;;;;;;19.23;17.60;;;;;;;17.50;100.00;97378.94;5079143;28;20206;-61
2023/09/29 09:47:57;;;;;;;18.33;16.73;;;;;;;17.61;100.00;97378.19;5075611;28;20465;-61
2023/09/29 09:50:28;;;;;;;18.70;17.20;;;;;;;17.70;100.00;97378.72;5077689;28;20808;-60
2023/09/29 09:52:56;;;;;;;16.50;15.17;;;;;;;17.82;100.00;97376.09;5074828;28;20640;-60
2023/09/29 09:55:29;;;;;;;17.40;15.93;;;;;;;17.90;100.00;97374.97;5073311;28;20217;-62
2023/09/29 09:57:57;;;;;;;17.17;15.60;;;;;;;17.91;100.00;97374.75;4971006;28;21383;-61
2023/09/29 10:00:27;;;;;;;16.23;14.80;;;;;;;18.15;100.00;97377.56;5077751;28;20716;-61
2023/09/29 10:02:56;;;;;;;18.80;17.10;;;;;;;18.04;100.00;97375.66;5010203;28;22332;-61
2023/09/29 10:05:30;;;;;;;16.33;14.70;;;;;;;18.18;100.00;97381.63;5078552;28;20205;-63
2023/09/29 10:08:05;;;;;;;16.50;15.10;;;;;;;18.23;100.00;97387.16;5072550;28;20792;-61
2023/09/29 10:10:35;;;;;;;13.90;12.80;;;;;;;18.50;100.00;97382.19;5074662;28;20287;-62
2023/09/29 10:13:03;;;;;;;13.37;12.27;;;;;;;18.54;100.00;97360.28;5077545;28;20289;-61
2023/09/29 10:15:32;;;;;;;13.93;12.63;;;;;;;18.83;100.00;97371.16;5081551;28;20201;-61
2023/09/29 10:18:00;;;;;;;13.07;12.03;;;;;;;18.99;100.00;97369.69;5069513;28;20250;-60
2023/09/29 10:20:29;;;;;;;13.73;12.33;;;;;;;19.14;100.00;97361.94;5075570;28;20296;-62
2023/09/29 10:23:06;;;;;;;12.43;11.43;;;;;;;19.45;100.00;97367.16;5072017;28;20203;-61
2023/09/29 10:25:36;;;;;;;11.80;10.97;;;;;;;19.68;100.00;97358.22;5075087;28;20226;-60
2023/09/29 10:28:06;;;;;;;12.30;11.30;;;;;;;19.95;100.00;97361.19;5011638;28;20284;-60
2023/09/29 10:30:34;;;;;;;10.93;10.03;;;;;;;20.18;100.00;97356.75;5077005;28;20205;-60
2023/09/29 10:33:05;;;;;;;11.17;10.27;;;;;;;20.24;100.00;97354.97;4971485;28;21380;-58
2023/09/29 10:35:35;;;;;;;11.60;10.60;;;;;;;20.53;100.00;97350.34;5077069;28;20202;-59
2023/09/29 10:38:12;;;;;;;12.70;11.60;;;;;;;20.35;100.00;97347.91;5016830;28;20225;-60
2023/09/29 10:40:41;;;;;;;11.73;10.83;;;;;;;20.32;100.00;97340.31;5074203;28;20818;-61
2023/09/29 10:43:10;;;;;;;9.77;9.03;;;;;;;20.65;100.00;97338.72;5011795;28;20199;-60
2023/09/29 10:45:37;;;;;;;10.20;9.27;;;;;;;20.80;100.00;97346.22;5079671;28;20268;-61
2023/09/29 10:48:07;;;;;;;9.30;8.60;;;;;;;20.96;100.00;97355.31;5069084;28;20346;-59
2023/09/29 10:50:40;;;;;;;9.13;8.47;;;;;;;21.02;100.00;97348.94;5078249;28;20201;-61
2023/09/29 10:53:08;;;;;;;9.00;8.30;;;;;;;20.74;100.00;97347.16;5073085;28;20733;-61
2023/09/29 10:55:43;;;;;;;8.80;8.00;;;;;;;20.59;100.00;97343.19;5077060;28;20253;-61
2023/09/29 10:58:12;;;;;;;9.50;7.70;;;;;;;20.36;100.00;97341.47;5010658;28;20230;-60
2023/09/29 11:00:46;;;;;;;8.63;7.93;;;;;;;20.38;100.00;97332.06;5074545;28;20894;-60
2023/09/29 11:03:15;;;;;;;8.30;7.60;;;;;;;20.48;100.00;97344.09;4971470;28;20210;-60
2023/09/29 11:05:50;;;;;;;8.03;7.27;;;;;;;20.59;100.00;97342.34;5076845;28;20733;-60
2023/09/29 11:08:20;;;;;;;8.27;7.57;;;;;;;20.68;100.00;97338.22;5069122;28;20224;-59
2023/09/29 11:10:57;;;;;;;9.17;8.37;;;;;;;20.56;100.00;97329.38;5014731;28;20981;-62
2023/09/29 11:13:26;;;;;;;8.17;7.47;;;;;;;20.72;100.00;97328.56;5070661;28;20217;-62
2023/09/29 11:15:55;;;;;;;8.93;8.23;;;;;;;20.76;100.00;97318.13;5006561;28;20882;-58
2023/09/29 11:18:31;;;;;;;8.63;7.83;;;;;;;21.09;100.00;97311.06;5075189;28;20689;-59
2023/09/29 11:21:00;;;;;;;8.73;8.03;;;;;;;21.34;100.00;97313.28;5065588;28;20752;-60
2023/09/29 11:23:38;;;;;;;8.20;7.50;;;;;;;21.51;100.00;97317.81;5073835;28;20720;-60